Time,TemperatureF,DewpointF,PressureIn,WindDirection,WindDirectionDegrees,WindSpeedMPH,WindSpeedGustMPH,Humidity,HourlyPrecipIn,Conditions,Clouds,dailyrainin,SoftwareType,DateUTC
2013-09-21 00:01:00,64.0,53.7,29.44,WNW,292,0.0,0.0,69,0.00,,,0.00,VWS V14.01,2013-09-21 04:01:00,
2013-09-21 00:02:00,64.0,53.7,29.44,WNW,292,0.0,0.0,69,0.00,,,0.00,VWS V14.01,2013-09-21 04:02:00,
2013-09-21 00:07:00,63.7,53.3,29.44,SSW,202,0.0,0.0,69,0.00,,,0.00,VWS V14.01,2013-09-21 04:07:00,
2013-09-21 00:12:00,63.5,53.2,29.44,SSW,202,3.4,3.4,69,0.00,,,0.00,VWS V14.01,2013-09-21 04:12:00,
2013-09-21 00:17:00,63.5,53.5,29.44,South,180,0.0,0.0,70,0.00,,,0.00,VWS V14.01,2013-09-21 04:17:00,
2013-09-21 00:22:00,63.3,53.4,29.44,WSW,248,0.0,0.0,70,0.00,,,0.00,VWS V14.01,2013-09-21 04:22:00,
2013-09-21 00:27:00,63.3,53.8,29.44,SSE,158,0.0,0.0,71,0.00,,,0.00,VWS V14.01,2013-09-21 04:27:00,
2013-09-21 00:32:00,63.1,53.6,29.44,SSW,202,0.0,0.0,71,0.00,,,0.00,VWS V14.01,2013-09-21 04:32:00,
2013-09-21 00:37:00,63.0,53.4,29.41,NE,45,0.0,0.0,71,0.00,,,0.00,VWS V14.01,2013-09-21 04:37:00,
2013-09-21 00:42:00,62.8,53.2,29.41,NNE,22,0.0,0.0,71,0.00,,,0.00,VWS V14.01,2013-09-21 04:42:00,
2013-09-21 00:47:00,62.8,53.6,29.41,NNE,22,0.0,0.0,72,0.00,,,0.00,VWS V14.01,2013-09-21 04:47:00,
2013-09-21 00:52:00,62.6,53.5,29.41,NNE,22,0.0,0.0,72,0.00,,,0.00,VWS V14.01,2013-09-21 04:52:00,
2013-09-21 00:57:00,62.6,53.5,29.41,West,270,0.0,0.0,72,0.00,,,0.00,VWS V14.01,2013-09-21 04:57:00,
2013-09-21 01:02:00,62.8,53.6,29.41,SSW,202,0.0,0.0,72,0.00,,,0.00,VWS V14.01,2013-09-21 05:02:00,
2013-09-21 01:08:00,62.6,53.5,29.41,WSW,248,0.0,0.0,72,0.00,,,0.00,VWS V14.01,2013-09-21 05:08:00,
2013-09-21 01:13:00,62.6,53.5,29.41,WSW,248,0.0,0.0,72,0.00,,,0.00,VWS V14.01,2013-09-21 05:13:00,
2013-09-21 01:18:00,62.6,53.5,29.41,SSW,202,0.9,0.9,72,0.00,,,0.00,VWS V14.01,2013-09-21 05:18:00,
2013-09-21 01:23:00,62.4,53.7,29.41,South,180,2.2,2.2,73,0.00,,,0.00,VWS V14.01,2013-09-21 05:23:00,
2013-09-21 01:28:00,62.2,53.5,29.41,SSE,158,2.5,2.5,73,0.00,,,0.00,VWS V14.01,2013-09-21 05:28:00,
2013-09-21 01:33:00,62.2,53.5,29.41,West,270,0.0,0.0,73,0.00,,,0.00,VWS V14.01,2013-09-21 05:33:00,
2013-09-21 01:38:00,62.2,53.9,29.44,West,270,0.0,0.0,74,0.00,,,0.00,VWS V14.01,2013-09-21 05:38:00,
2013-09-21 01:43:00,62.1,53.3,29.44,South,180,2.0,2.0,73,0.00,,,0.00,VWS V14.01,2013-09-21 05:43:00,
2013-09-21 01:48:00,61.9,53.5,29.44,WSW,248,0.0,0.0,74,0.00,,,0.00,VWS V14.01,2013-09-21 05:48:00,
2013-09-21 01:53:00,61.7,53.3,29.41,SSE,158,3.6,3.6,74,0.00,,,0.00,VWS V14.01,2013-09-21 05:53:00,
2013-09-21 01:58:00,61.5,53.2,29.41,SSE,158,2.5,2.5,74,0.00,,,0.00,VWS V14.01,2013-09-21 05:58:00,
2013-09-21 02:03:00,61.5,53.2,29.41,NE,45,0.0,0.0,74,0.00,,,0.00,VWS V14.01,2013-09-21 06:03:00,
2013-09-21 02:08:00,61.3,53.4,29.41,NNW,338,2.0,2.0,75,0.00,,,0.00,VWS V14.01,2013-09-21 06:08:00,
2013-09-21 02:14:00,61.3,53.7,29.41,West,270,0.9,0.9,76,0.00,,,0.00,VWS V14.01,2013-09-21 06:14:00,
2013-09-21 02:19:00,61.2,53.2,29.41,WNW,292,0.0,0.0,75,0.00,,,0.00,VWS V14.01,2013-09-21 06:19:00,
2013-09-21 02:24:00,61.2,53.5,29.38,SSE,158,1.6,1.6,76,0.00,,,0.00,VWS V14.01,2013-09-21 06:24:00,
2013-09-21 02:29:00,61.3,53.7,29.38,South,180,1.6,1.6,76,0.00,,,0.00,VWS V14.01,2013-09-21 06:29:00,
2013-09-21 02:34:00,61.2,53.5,29.38,SSE,158,2.0,2.0,76,0.00,,,0.00,VWS V14.01,2013-09-21 06:34:00,
2013-09-21 02:39:00,61.0,53.7,29.38,SE,135,1.6,1.6,77,0.00,,,0.00,VWS V14.01,2013-09-21 06:39:00,
2013-09-21 02:44:00,61.0,53.7,29.38,SW,225,0.0,0.0,77,0.00,,,0.00,VWS V14.01,2013-09-21 06:44:00,
2013-09-21 02:49:00,61.0,54.1,29.38,NW,315,2.2,2.2,78,0.00,,,0.00,VWS V14.01,2013-09-21 06:49:00,
2013-09-21 02:54:00,60.8,53.5,29.38,West,270,0.0,0.0,77,0.00,,,0.00,VWS V14.01,2013-09-21 06:54:00,
2013-09-21 02:59:00,60.8,53.5,29.38,SSW,202,2.5,2.5,77,0.00,,,0.00,VWS V14.01,2013-09-21 06:59:00,
2013-09-21 03:04:00,60.6,53.7,29.38,SSW,202,3.8,3.8,78,0.00,,,0.00,VWS V14.01,2013-09-21 07:04:00,
2013-09-21 03:09:00,60.8,53.9,29.35,South,180,2.5,2.5,78,0.00,,,0.00,VWS V14.01,2013-09-21 07:09:00,
2013-09-21 03:15:00,60.8,53.9,29.35,SSE,158,3.1,3.1,78,0.00,,,0.00,VWS V14.01,2013-09-21 07:15:00,
2013-09-21 03:20:00,60.8,54.3,29.35,SSE,158,2.7,2.7,79,0.00,,,0.00,VWS V14.01,2013-09-21 07:20:00,
2013-09-21 03:25:00,61.0,54.4,29.35,SSE,158,2.9,2.9,79,0.00,,,0.00,VWS V14.01,2013-09-21 07:25:00,
2013-09-21 03:30:00,61.0,54.4,29.35,SSE,158,4.7,4.7,79,0.00,,,0.00,VWS V14.01,2013-09-21 07:30:00,
2013-09-21 03:35:00,61.2,54.6,29.38,SSW,202,0.9,0.9,79,0.00,,,0.00,VWS V14.01,2013-09-21 07:35:00,
2013-09-21 03:40:00,61.2,55.0,29.38,SW,225,0.0,0.0,80,0.00,,,0.00,VWS V14.01,2013-09-21 07:40:00,
2013-09-21 03:45:00,61.3,54.8,29.38,South,180,1.6,1.6,79,0.00,,,0.00,VWS V14.01,2013-09-21 07:45:00,
2013-09-21 03:50:00,61.3,54.8,29.38,ENE,68,0.0,0.0,79,0.00,,,0.00,VWS V14.01,2013-09-21 07:50:00,
2013-09-21 03:55:00,61.3,54.8,29.38,NNW,338,2.5,2.5,79,0.00,,,0.00,VWS V14.01,2013-09-21 07:55:00,
2013-09-21 04:00:00,61.2,54.6,29.38,North,0,0.0,0.0,79,0.00,,,0.00,VWS V14.01,2013-09-21 08:00:00,
2013-09-21 04:05:00,61.2,55.0,29.38,NNE,22,2.0,2.0,80,0.00,,,0.00,VWS V14.01,2013-09-21 08:05:00,
2013-09-21 04:11:00,61.0,54.4,29.38,NNW,338,2.7,2.7,79,0.00,,,0.00,VWS V14.01,2013-09-21 08:11:00,
2013-09-21 04:16:00,61.0,54.8,29.38,North,0,1.3,1.3,80,0.00,,,0.00,VWS V14.01,2013-09-21 08:16:00,
2013-09-21 04:21:00,61.2,55.0,29.35,NNE,22,0.0,0.0,80,0.00,,,0.00,VWS V14.01,2013-09-21 08:21:00,
2013-09-21 04:26:00,61.2,55.0,29.35,NE,45,2.0,2.0,80,0.00,,,0.00,VWS V14.01,2013-09-21 08:26:00,
2013-09-21 04:31:00,61.3,55.1,29.35,NE,45,0.0,0.0,80,0.00,,,0.00,VWS V14.01,2013-09-21 08:31:00,
2013-09-21 04:36:00,61.3,55.1,29.38,SSW,202,2.5,2.5,80,0.00,,,0.00,VWS V14.01,2013-09-21 08:36:00,
2013-09-21 04:41:00,61.3,55.1,29.38,SSW,202,0.0,0.0,80,0.00,,,0.00,VWS V14.01,2013-09-21 08:41:00,
2013-09-21 04:46:00,61.3,55.1,29.38,SSW,202,0.0,0.0,80,0.00,,,0.00,VWS V14.01,2013-09-21 08:46:00,
2013-09-21 04:51:00,61.3,55.1,29.38,SSW,202,0.0,0.0,80,0.00,,,0.00,VWS V14.01,2013-09-21 08:51:00,
2013-09-21 04:56:00,61.2,55.0,29.38,East,90,0.0,0.0,80,0.00,,,0.00,VWS V14.01,2013-09-21 08:56:00,
2013-09-21 05:01:00,61.2,55.0,29.38,SE,135,1.6,1.6,80,0.00,,,0.00,VWS V14.01,2013-09-21 09:01:00,
2013-09-21 05:06:00,61.0,54.8,29.38,SSW,202,1.1,1.1,80,0.00,,,0.00,VWS V14.01,2013-09-21 09:06:00,
2013-09-21 05:11:00,60.8,54.6,29.38,South,180,2.9,2.9,80,0.00,,,0.00,VWS V14.01,2013-09-21 09:11:00,
2013-09-21 05:16:00,60.8,54.9,29.38,WSW,248,2.2,2.2,81,0.00,,,0.00,VWS V14.01,2013-09-21 09:16:00,
2013-09-21 05:21:00,60.8,54.9,29.38,SSW,202,0.9,0.9,81,0.00,,,0.00,VWS V14.01,2013-09-21 09:21:00,
2013-09-21 05:26:00,60.8,54.9,29.38,SSE,158,0.0,0.0,81,0.00,,,0.00,VWS V14.01,2013-09-21 09:26:00,
2013-09-21 05:31:00,60.6,54.8,29.38,SSE,158,0.0,0.0,81,0.00,,,0.00,VWS V14.01,2013-09-21 09:31:00,
2013-09-21 05:36:00,60.6,54.8,29.38,SE,135,2.0,2.0,81,0.00,,,0.00,VWS V14.01,2013-09-21 09:36:00,
2013-09-21 05:42:00,60.6,55.1,29.38,SSE,158,0.0,0.0,82,0.00,,,0.00,VWS V14.01,2013-09-21 09:42:00,
2013-09-21 05:47:00,60.6,55.1,29.38,NNW,338,2.7,2.7,82,0.00,,,0.00,VWS V14.01,2013-09-21 09:47:00,
2013-09-21 05:52:00,60.6,55.1,29.38,North,0,0.0,0.0,82,0.00,,,0.00,VWS V14.01,2013-09-21 09:52:00,
2013-09-21 05:57:00,60.8,55.3,29.38,ESE,112,0.0,0.0,82,0.00,,,0.00,VWS V14.01,2013-09-21 09:57:00,
2013-09-21 06:02:00,60.8,55.3,29.38,SW,225,0.0,0.0,82,0.00,,,0.00,VWS V14.01,2013-09-21 10:02:00,
2013-09-21 06:07:00,61.0,55.8,29.38,SSW,202,2.9,2.9,83,0.00,,,0.00,VWS V14.01,2013-09-21 10:07:00,
2013-09-21 06:12:00,61.0,55.8,29.38,SE,135,2.5,2.5,83,0.00,,,0.00,VWS V14.01,2013-09-21 10:12:00,
2013-09-21 06:17:00,61.2,56.0,29.38,SE,135,2.5,2.5,83,0.00,,,0.00,VWS V14.01,2013-09-21 10:17:00,
2013-09-21 06:22:00,61.2,56.0,29.35,ESE,112,0.0,0.0,83,0.00,,,0.00,VWS V14.01,2013-09-21 10:22:00,
2013-09-21 06:27:00,61.2,56.0,29.35,West,270,0.0,0.0,83,0.00,,,0.00,VWS V14.01,2013-09-21 10:27:00,
2013-09-21 06:32:00,61.3,56.1,29.35,South,180,1.6,1.6,83,0.00,,,0.00,VWS V14.01,2013-09-21 10:32:00,
2013-09-21 06:37:00,61.5,56.3,29.35,South,180,2.5,2.5,83,0.00,,,0.00,VWS V14.01,2013-09-21 10:37:00,
2013-09-21 06:42:00,61.5,56.3,29.35,SSW,202,3.8,3.8,83,0.00,,,0.00,VWS V14.01,2013-09-21 10:42:00,
2013-09-21 06:47:00,61.7,56.8,29.35,SSE,158,3.8,3.8,84,0.00,,,0.00,VWS V14.01,2013-09-21 10:47:00,
2013-09-21 06:52:00,61.9,57.0,29.38,SSW,202,2.9,2.9,84,0.00,,,0.00,VWS V14.01,2013-09-21 10:52:00,
2013-09-21 06:57:00,62.1,57.2,29.38,SE,135,3.1,3.1,84,0.00,,,0.00,VWS V14.01,2013-09-21 10:57:00,
2013-09-21 07:02:00,62.2,57.3,29.38,WSW,248,0.9,0.9,84,0.00,,,0.00,VWS V14.01,2013-09-21 11:02:00,
2013-09-21 07:07:00,62.2,57.3,29.38,South,180,4.7,4.7,84,0.00,,,0.00,VWS V14.01,2013-09-21 11:07:00,
2013-09-21 07:12:00,62.4,57.5,29.38,SSE,158,2.0,2.0,84,0.00,,,0.00,VWS V14.01,2013-09-21 11:12:00,
2013-09-21 07:17:00,62.6,57.4,29.38,SE,135,2.5,2.5,83,0.00,,,0.00,VWS V14.01,2013-09-21 11:17:00,
2013-09-21 07:23:00,62.6,57.4,29.35,West,270,1.6,1.6,83,0.00,,,0.00,VWS V14.01,2013-09-21 11:23:00,
2013-09-21 07:28:00,62.8,57.5,29.35,South,180,0.9,0.9,83,0.00,,,0.00,VWS V14.01,2013-09-21 11:28:00,
2013-09-21 07:33:00,63.0,57.7,29.35,South,180,6.5,6.5,83,0.00,,,0.00,VWS V14.01,2013-09-21 11:33:00,
2013-09-21 07:38:00,63.0,57.7,29.35,NW,315,2.2,2.2,83,0.00,,,0.00,VWS V14.01,2013-09-21 11:38:00,
2013-09-21 07:43:00,63.1,57.9,29.35,SW,225,4.9,4.9,83,0.00,,,0.00,VWS V14.01,2013-09-21 11:43:00,
2013-09-21 07:48:00,63.3,58.1,29.35,SSW,202,3.8,3.8,83,0.00,,,0.00,VWS V14.01,2013-09-21 11:48:00,
2013-09-21 07:53:00,63.3,58.1,29.35,SSW,202,3.1,3.1,83,0.00,,,0.00,VWS V14.01,2013-09-21 11:53:00,
2013-09-21 07:58:00,63.5,57.9,29.35,SSW,202,2.2,2.2,82,0.00,,,0.00,VWS V14.01,2013-09-21 11:58:00,
2013-09-21 08:03:00,63.5,57.9,29.35,SW,225,2.5,2.5,82,0.00,,,0.00,VWS V14.01,2013-09-21 12:03:00,
2013-09-21 08:08:00,63.7,58.1,29.35,SSE,158,0.9,0.9,82,0.00,,,0.00,VWS V14.01,2013-09-21 12:08:00,
2013-09-21 08:13:00,63.9,58.3,29.35,SW,225,6.0,6.0,82,0.00,,,0.00,VWS V14.01,2013-09-21 12:13:00,
2013-09-21 08:18:00,63.9,58.3,29.35,South,180,5.6,5.6,82,0.00,,,0.00,VWS V14.01,2013-09-21 12:18:00,
2013-09-21 08:23:00,64.0,58.4,29.32,SSW,202,3.8,3.8,82,0.00,,,0.00,VWS V14.01,2013-09-21 12:23:00,
2013-09-21 08:29:00,64.0,58.1,29.32,South,180,6.5,6.5,81,0.00,,,0.00,VWS V14.01,2013-09-21 12:29:00,
2013-09-21 08:34:00,64.2,58.3,29.32,SSW,202,3.8,3.8,81,0.00,,,0.00,VWS V14.01,2013-09-21 12:34:00,
2013-09-21 08:39:00,64.4,58.5,29.32,SW,225,7.6,7.6,81,0.00,,,0.00,VWS V14.01,2013-09-21 12:39:00,
2013-09-21 08:44:00,64.4,58.5,29.32,WNW,292,2.5,2.5,81,0.00,,,0.00,VWS V14.01,2013-09-21 12:44:00,
2013-09-21 08:49:00,64.4,58.5,29.32,South,180,3.8,3.8,81,0.00,,,0.00,VWS V14.01,2013-09-21 12:49:00,
2013-09-21 08:54:00,64.6,58.6,29.35,SW,225,8.7,8.7,81,0.00,,,0.00,VWS V14.01,2013-09-21 12:54:00,
2013-09-21 08:59:00,64.6,58.6,29.35,South,180,4.3,4.3,81,0.00,,,0.00,VWS V14.01,2013-09-21 12:59:00,
2013-09-21 09:04:00,64.8,58.8,29.35,SW,225,6.0,6.0,81,0.00,,,0.00,VWS V14.01,2013-09-21 13:04:00,
2013-09-21 09:09:00,64.8,58.8,29.32,SSW,202,6.0,6.0,81,0.00,,,0.00,VWS V14.01,2013-09-21 13:09:00,
2013-09-21 09:14:00,64.9,59.0,29.32,South,180,4.3,4.3,81,0.00,,,0.00,VWS V14.01,2013-09-21 13:14:00,
2013-09-21 09:20:00,64.9,59.0,29.32,SW,225,6.3,6.3,81,0.00,,,0.00,VWS V14.01,2013-09-21 13:20:00,
2013-09-21 09:25:00,65.1,59.2,29.32,South,180,10.7,10.7,81,0.00,,,0.00,VWS V14.01,2013-09-21 13:25:00,
2013-09-21 09:30:00,65.1,59.2,29.32,SSW,202,3.6,3.6,81,0.00,,,0.00,VWS V14.01,2013-09-21 13:30:00,
2013-09-21 09:35:00,65.3,59.3,29.32,SE,135,3.4,3.4,81,0.00,,,0.00,VWS V14.01,2013-09-21 13:35:00,
2013-09-21 09:40:00,65.5,59.5,29.32,South,180,6.5,6.5,81,0.00,,,0.00,VWS V14.01,2013-09-21 13:40:00,
2013-09-21 09:45:00,65.5,59.2,29.32,SSW,202,4.3,4.3,80,0.00,,,0.00,VWS V14.01,2013-09-21 13:45:00,
2013-09-21 09:50:00,65.5,59.2,29.32,SSW,202,7.6,7.6,80,0.00,,,0.00,VWS V14.01,2013-09-21 13:50:00,
2013-09-21 09:55:00,65.7,59.3,29.32,WSW,248,3.8,3.8,80,0.00,,,0.00,VWS V14.01,2013-09-21 13:55:00,
2013-09-21 10:00:00,65.7,59.3,29.32,South,180,2.5,2.5,80,0.00,,,0.00,VWS V14.01,2013-09-21 14:00:00,
2013-09-21 10:05:00,65.7,59.3,29.32,SSW,202,7.4,7.4,80,0.00,,,0.00,VWS V14.01,2013-09-21 14:05:00,
2013-09-21 10:10:00,65.7,59.3,29.32,SSW,202,2.0,2.0,80,0.00,,,0.00,VWS V14.01,2013-09-21 14:10:00,
2013-09-21 10:15:00,65.8,59.5,29.32,SSW,202,2.5,2.5,80,0.00,,,0.00,VWS V14.01,2013-09-21 14:15:00,
2013-09-21 10:20:00,66.0,59.7,29.32,SSW,202,3.6,3.6,80,0.00,,,0.00,VWS V14.01,2013-09-21 14:20:00,
2013-09-21 10:25:00,66.0,59.7,29.32,SE,135,1.1,1.1,80,0.00,,,0.00,VWS V14.01,2013-09-21 14:25:00,
2013-09-21 10:31:00,66.2,59.5,29.32,WSW,248,5.6,5.6,79,0.00,,,0.00,VWS V14.01,2013-09-21 14:31:00,
2013-09-21 10:36:00,66.2,59.5,29.32,SE,135,1.1,1.1,79,0.00,,,0.00,VWS V14.01,2013-09-21 14:36:00,
2013-09-21 10:41:00,66.2,59.5,29.32,WSW,248,2.2,2.2,79,0.00,,,0.00,VWS V14.01,2013-09-21 14:41:00,
2013-09-21 10:46:00,66.4,59.7,29.32,SSW,202,2.0,2.0,79,0.00,,,0.00,VWS V14.01,2013-09-21 14:46:00,
2013-09-21 10:51:00,66.4,59.7,29.32,South,180,2.5,2.5,79,0.00,,,0.00,VWS V14.01,2013-09-21 14:51:00,
2013-09-21 10:56:00,66.6,59.8,29.32,SSW,202,5.8,5.8,79,0.00,,,0.00,VWS V14.01,2013-09-21 14:56:00,
2013-09-21 11:01:00,66.6,59.5,29.32,SSE,158,6.0,6.0,78,0.00,,,0.00,VWS V14.01,2013-09-21 15:01:00,
2013-09-21 11:06:00,66.7,59.7,29.32,South,180,3.1,3.1,78,0.00,,,0.00,VWS V14.01,2013-09-21 15:06:00,
2013-09-21 11:11:00,66.7,59.7,29.32,SSE,158,7.6,7.6,78,0.00,,,0.00,VWS V14.01,2013-09-21 15:11:00,
2013-09-21 11:16:00,66.7,59.7,29.32,SW,225,4.0,4.0,78,0.00,,,0.00,VWS V14.01,2013-09-21 15:16:00,
2013-09-21 11:21:00,66.7,59.7,29.32,SSW,202,6.5,6.5,78,0.00,,,0.00,VWS V14.01,2013-09-21 15:21:00,
2013-09-21 11:26:00,66.7,59.3,29.32,SSW,202,5.8,5.8,77,0.00,,,0.00,VWS V14.01,2013-09-21 15:26:00,
2013-09-21 11:31:00,66.9,59.5,29.32,SSW,202,4.0,4.0,77,0.00,,,0.00,VWS V14.01,2013-09-21 15:31:00,
2013-09-21 11:36:00,66.9,59.8,29.29,SSW,202,10.3,10.3,78,0.00,,,0.00,VWS V14.01,2013-09-21 15:36:00,
2013-09-21 11:41:00,67.1,60.0,29.29,SSW,202,3.6,3.6,78,0.00,,,0.00,VWS V14.01,2013-09-21 15:41:00,
2013-09-21 11:46:00,67.5,60.4,29.29,SE,135,5.4,5.4,78,0.00,,,0.00,VWS V14.01,2013-09-21 15:46:00,
2013-09-21 11:51:00,67.6,60.5,29.26,SSW,202,4.9,4.9,78,0.00,,,0.00,VWS V14.01,2013-09-21 15:51:00,
2013-09-21 11:56:00,67.6,60.2,29.26,SW,225,6.0,6.0,77,0.00,,,0.00,VWS V14.01,2013-09-21 15:56:00,
2013-09-21 12:02:00,67.8,60.3,29.26,SSE,158,4.3,4.3,77,0.00,,,0.00,VWS V14.01,2013-09-21 16:02:00,
2013-09-21 12:07:00,67.8,60.0,29.26,WSW,248,0.9,0.9,76,0.00,,,0.00,VWS V14.01,2013-09-21 16:07:00,
2013-09-21 12:12:00,67.8,60.0,29.26,SSW,202,3.1,3.1,76,0.00,,,0.00,VWS V14.01,2013-09-21 16:12:00,
2013-09-21 12:17:00,67.8,60.0,29.26,South,180,10.1,10.1,76,0.00,,,0.00,VWS V14.01,2013-09-21 16:17:00,
2013-09-21 12:22:00,67.8,60.0,29.23,SSW,202,6.3,6.3,76,0.00,,,0.00,VWS V14.01,2013-09-21 16:22:00,
2013-09-21 12:27:00,67.8,60.0,29.23,South,180,6.0,6.0,76,0.00,,,0.00,VWS V14.01,2013-09-21 16:27:00,
2013-09-21 12:32:00,67.8,59.6,29.23,SSW,202,3.8,3.8,75,0.00,,,0.00,VWS V14.01,2013-09-21 16:32:00,
2013-09-21 12:37:00,67.8,59.6,29.26,SW,225,1.3,1.3,75,0.00,,,0.00,VWS V14.01,2013-09-21 16:37:00,
2013-09-21 12:42:00,67.6,59.4,29.26,SSW,202,3.1,3.1,75,0.00,,,0.00,VWS V14.01,2013-09-21 16:42:00,
2013-09-21 12:47:00,67.8,59.6,29.26,South,180,5.4,5.4,75,0.00,,,0.00,VWS V14.01,2013-09-21 16:47:00,
2013-09-21 12:52:00,67.8,59.6,29.23,SSW,202,0.0,0.0,75,0.00,,,0.00,VWS V14.01,2013-09-21 16:52:00,
2013-09-21 12:57:00,67.8,60.0,29.23,West,270,1.6,1.6,76,0.00,,,0.00,VWS V14.01,2013-09-21 16:57:00,
2013-09-21 13:02:00,68.0,59.8,29.23,SE,135,4.0,4.0,75,0.00,,,0.00,VWS V14.01,2013-09-21 17:02:00,
2013-09-21 13:07:00,68.0,59.8,29.23,SSW,202,4.9,4.9,75,0.00,,,0.00,VWS V14.01,2013-09-21 17:07:00,
2013-09-21 13:13:00,68.2,60.0,29.23,WSW,248,6.5,6.5,75,0.00,,,0.00,VWS V14.01,2013-09-21 17:13:00,
2013-09-21 13:18:00,68.2,60.0,29.23,South,180,5.6,5.6,75,0.00,,,0.00,VWS V14.01,2013-09-21 17:18:00,
2013-09-21 13:23:00,68.2,60.0,29.23,WSW,248,1.1,1.1,75,0.00,,,0.00,VWS V14.01,2013-09-21 17:23:00,
2013-09-21 13:28:00,68.2,60.0,29.23,SSW,202,2.7,2.7,75,0.00,,,0.00,VWS V14.01,2013-09-21 17:28:00,
2013-09-21 13:33:00,68.4,60.1,29.23,South,180,2.9,2.9,75,0.00,,,0.00,VWS V14.01,2013-09-21 17:33:00,
2013-09-21 13:38:00,68.4,60.1,29.23,WSW,248,5.6,5.6,75,0.00,,,0.00,VWS V14.01,2013-09-21 17:38:00,
2013-09-21 13:43:00,68.2,60.0,29.23,SSW,202,3.1,3.1,75,0.00,,,0.00,VWS V14.01,2013-09-21 17:43:00,
2013-09-21 13:48:00,68.2,60.3,29.23,SSW,202,4.9,4.9,76,0.00,,,0.00,VWS V14.01,2013-09-21 17:48:00,
2013-09-21 13:53:00,68.2,60.3,29.20,SSE,158,5.4,5.4,76,0.00,,,0.00,VWS V14.01,2013-09-21 17:53:00,
2013-09-21 13:58:00,68.2,60.3,29.20,SSW,202,3.1,3.1,76,0.00,,,0.00,VWS V14.01,2013-09-21 17:58:00,
2013-09-21 14:03:00,68.4,60.5,29.20,WSW,248,6.0,6.0,76,0.00,,,0.00,VWS V14.01,2013-09-21 18:03:00,
2013-09-21 14:08:00,68.4,60.5,29.20,SSW,202,5.4,5.4,76,0.00,,,0.00,VWS V14.01,2013-09-21 18:08:00,
2013-09-21 14:13:00,68.5,60.7,29.20,SSW,202,2.5,2.5,76,0.00,,,0.00,VWS V14.01,2013-09-21 18:13:00,
2013-09-21 14:18:00,68.7,60.9,29.20,South,180,6.3,6.3,76,0.00,,,0.00,VWS V14.01,2013-09-21 18:18:00,
2013-09-21 14:24:00,68.9,60.7,29.20,SSW,202,6.3,6.3,75,0.00,,,0.00,VWS V14.01,2013-09-21 18:24:00,
2013-09-21 14:29:00,68.9,60.7,29.20,WSW,248,6.0,6.0,75,0.00,,,0.00,VWS V14.01,2013-09-21 18:29:00,
2013-09-21 14:34:00,68.9,60.7,29.20,SE,135,3.6,3.6,75,0.00,,,0.00,VWS V14.01,2013-09-21 18:34:00,
2013-09-21 14:39:00,68.9,60.3,29.20,SE,135,3.6,3.6,74,0.00,,,0.00,VWS V14.01,2013-09-21 18:39:00,
2013-09-21 14:44:00,68.9,60.3,29.20,WSW,248,4.0,4.0,74,0.00,,,0.00,VWS V14.01,2013-09-21 18:44:00,
2013-09-21 14:49:00,68.9,60.3,29.20,SSW,202,5.4,5.4,74,0.00,,,0.00,VWS V14.01,2013-09-21 18:49:00,
2013-09-21 14:54:00,68.9,60.3,29.20,SSW,202,2.7,2.7,74,0.00,,,0.00,VWS V14.01,2013-09-21 18:54:00,
2013-09-21 14:59:00,68.9,60.3,29.20,SSE,158,5.4,5.4,74,0.00,,,0.00,VWS V14.01,2013-09-21 18:59:00,
2013-09-21 15:04:00,69.1,60.1,29.20,SSW,202,8.1,8.1,73,0.00,,,0.00,VWS V14.01,2013-09-21 19:04:00,
2013-09-21 15:09:00,69.1,59.7,29.17,SSW,202,2.9,2.9,72,0.00,,,0.00,VWS V14.01,2013-09-21 19:09:00,
2013-09-21 15:14:00,69.1,59.3,29.17,SE,135,3.6,3.6,71,0.00,,,0.00,VWS V14.01,2013-09-21 19:14:00,
2013-09-21 15:19:00,69.1,59.3,29.17,SSW,202,1.3,1.3,71,0.00,,,0.00,VWS V14.01,2013-09-21 19:19:00,
2013-09-21 15:24:00,69.1,58.9,29.17,SSE,158,5.4,5.4,70,0.00,,,0.00,VWS V14.01,2013-09-21 19:24:00,
2013-09-21 15:29:00,69.1,59.3,29.17,South,180,8.7,8.7,71,0.00,,,0.00,VWS V14.01,2013-09-21 19:29:00,
2013-09-21 15:34:00,69.1,59.3,29.14,South,180,3.6,3.6,71,0.00,,,0.00,VWS V14.01,2013-09-21 19:34:00,
2013-09-21 15:39:00,68.9,59.1,29.14,SSE,158,4.3,4.3,71,0.00,,,0.00,VWS V14.01,2013-09-21 19:39:00,
2013-09-21 15:45:00,68.7,59.3,29.14,SSW,202,5.6,5.6,72,0.00,,,0.00,VWS V14.01,2013-09-21 19:45:00,
2013-09-21 15:50:00,68.5,59.5,29.14,SW,225,5.8,5.8,73,0.00,,,0.00,VWS V14.01,2013-09-21 19:50:00,
2013-09-21 15:55:00,68.2,59.6,29.14,SSW,202,4.9,4.9,74,0.00,,,0.00,VWS V14.01,2013-09-21 19:55:00,
2013-09-21 16:00:00,68.0,59.8,29.14,SSW,202,2.5,2.5,75,0.00,,,0.00,VWS V14.01,2013-09-21 20:00:00,
2013-09-21 16:05:00,67.6,60.5,29.14,SSW,202,2.9,2.9,78,0.00,,,0.00,VWS V14.01,2013-09-21 20:05:00,
2013-09-21 16:10:00,67.3,60.5,29.14,SW,225,3.1,3.1,79,0.00,,,0.00,VWS V14.01,2013-09-21 20:10:00,
2013-09-21 16:15:00,67.1,60.4,29.14,SSW,202,6.0,6.0,79,0.00,,,0.00,VWS V14.01,2013-09-21 20:15:00,
2013-09-21 16:20:00,66.9,60.6,29.14,SSE,158,2.5,2.5,80,0.00,,,0.00,VWS V14.01,2013-09-21 20:20:00,
2013-09-21 16:25:00,66.7,60.7,29.14,SSW,202,6.3,6.3,81,0.00,,,0.00,VWS V14.01,2013-09-21 20:25:00,
2013-09-21 16:30:00,66.6,60.6,29.14,SE,135,3.4,3.4,81,0.00,,,0.00,VWS V14.01,2013-09-21 20:30:00,
2013-09-21 16:35:00,66.4,60.7,29.17,WSW,248,6.3,6.3,82,0.00,,,0.00,VWS V14.01,2013-09-21 20:35:00,
2013-09-21 16:40:00,66.2,60.9,29.17,SSW,202,3.4,3.4,83,0.00,,,0.00,VWS V14.01,2013-09-21 20:40:00,
2013-09-21 16:45:00,66.0,61.0,29.17,SSW,202,3.1,3.1,84,0.00,,,0.00,VWS V14.01,2013-09-21 20:45:00,
2013-09-21 16:50:00,65.8,60.9,29.17,SSW,202,3.1,3.1,84,0.00,,,0.00,VWS V14.01,2013-09-21 20:50:00,
2013-09-21 16:55:00,65.8,61.2,29.17,SSE,158,4.0,4.0,85,0.00,,,0.00,VWS V14.01,2013-09-21 20:55:00,
2013-09-21 17:00:00,65.7,61.4,29.17,SSW,202,7.4,7.4,86,0.00,,,0.00,VWS V14.01,2013-09-21 21:00:00,
2013-09-21 17:06:00,65.5,61.5,29.14,SSW,202,6.0,6.0,87,0.00,,,0.00,VWS V14.01,2013-09-21 21:06:00,
2013-09-21 17:11:00,65.5,61.5,29.14,SW,225,2.5,2.5,87,0.00,,,0.00,VWS V14.01,2013-09-21 21:11:00,
2013-09-21 17:16:00,65.3,61.7,29.14,WSW,248,3.4,3.4,88,0.00,,,0.00,VWS V14.01,2013-09-21 21:16:00,
2013-09-21 17:21:00,65.3,61.7,29.14,SSW,202,4.3,4.3,88,0.00,,,0.00,VWS V14.01,2013-09-21 21:21:00,
2013-09-21 17:26:00,65.1,61.8,29.14,South,180,6.3,6.3,89,0.00,,,0.00,VWS V14.01,2013-09-21 21:26:00,
2013-09-21 17:31:00,65.1,61.8,29.14,SW,225,4.9,4.9,89,0.00,,,0.00,VWS V14.01,2013-09-21 21:31:00,
2013-09-21 17:36:00,65.1,62.4,29.17,West,270,5.8,5.8,91,0.00,,,0.00,VWS V14.01,2013-09-21 21:36:00,
2013-09-21 17:41:00,64.9,62.2,29.17,West,270,6.0,6.0,91,0.00,,,0.00,VWS V14.01,2013-09-21 21:41:00,
2013-09-21 17:46:00,64.6,61.9,29.17,WSW,248,6.5,6.5,91,0.00,,,0.00,VWS V14.01,2013-09-21 21:46:00,
2013-09-21 17:51:00,64.4,61.7,29.20,WSW,248,5.4,5.4,91,0.00,,,0.00,VWS V14.01,2013-09-21 21:51:00,
2013-09-21 17:56:00,64.4,61.7,29.20,SSW,202,5.4,5.4,91,0.00,,,0.00,VWS V14.01,2013-09-21 21:56:00,
2013-09-21 18:01:00,64.2,61.5,29.20,West,270,3.6,3.6,91,0.00,,,0.00,VWS V14.01,2013-09-21 22:01:00,
2013-09-21 18:06:00,64.0,61.4,29.17,WSW,248,3.8,3.8,91,0.00,,,0.00,VWS V14.01,2013-09-21 22:06:00,
2013-09-21 18:11:00,63.9,61.2,29.17,West,270,2.5,2.5,91,0.00,,,0.00,VWS V14.01,2013-09-21 22:11:00,
2013-09-21 18:16:00,63.9,61.2,29.17,SSW,202,6.3,6.3,91,0.00,,,0.00,VWS V14.01,2013-09-21 22:16:00,
2013-09-21 18:21:00,63.7,60.7,29.20,West,270,4.5,4.5,90,0.00,,,0.00,VWS V14.01,2013-09-21 22:21:00,
2013-09-21 18:26:00,63.5,60.2,29.20,West,270,5.8,5.8,89,0.00,,,0.00,VWS V14.01,2013-09-21 22:26:00,
2013-09-21 18:32:00,63.5,59.9,29.20,NNW,338,4.3,4.3,88,0.00,,,0.00,VWS V14.01,2013-09-21 22:32:00,
2013-09-21 18:37:00,63.1,59.2,29.20,NNW,338,2.7,2.7,87,0.00,,,0.00,VWS V14.01,2013-09-21 22:37:00,
2013-09-21 18:42:00,63.1,59.2,29.20,NNW,338,1.3,1.3,87,0.00,,,0.00,VWS V14.01,2013-09-21 22:42:00,
2013-09-21 18:47:00,63.1,59.5,29.20,East,90,0.0,0.0,88,0.00,,,0.00,VWS V14.01,2013-09-21 22:47:00,
2013-09-21 18:52:00,63.0,59.4,29.20,NNE,22,1.3,1.3,88,0.00,,,0.00,VWS V14.01,2013-09-21 22:52:00,
2013-09-21 18:57:00,63.0,59.7,29.20,NNE,22,2.9,2.9,89,0.00,,,0.00,VWS V14.01,2013-09-21 22:57:00,
2013-09-21 19:02:00,63.0,59.7,29.20,NE,45,3.1,3.1,89,0.00,,,0.00,VWS V14.01,2013-09-21 23:02:00,
2013-09-21 19:07:00,63.0,59.7,29.20,East,90,2.7,2.7,89,0.00,,,0.00,VWS V14.01,2013-09-21 23:07:00,
2013-09-21 19:12:00,62.8,59.8,29.20,ENE,68,1.6,1.6,90,0.00,,,0.00,VWS V14.01,2013-09-21 23:12:00,
2013-09-21 19:17:00,62.6,59.6,29.20,ESE,112,1.3,1.3,90,0.00,,,0.00,VWS V14.01,2013-09-21 23:17:00,
2013-09-21 19:22:00,62.6,59.3,29.20,NNE,22,0.0,0.0,89,0.00,,,0.00,VWS V14.01,2013-09-21 23:22:00,
2013-09-21 19:27:00,62.6,59.6,29.20,NNE,22,1.3,1.3,90,0.00,,,0.00,VWS V14.01,2013-09-21 23:27:00,
2013-09-21 19:33:00,62.4,59.5,29.20,NNW,338,0.0,0.0,90,0.00,,,0.00,VWS V14.01,2013-09-21 23:33:00,
2013-09-21 19:38:00,62.2,59.6,29.20,ENE,68,0.0,0.0,91,0.00,,,0.00,VWS V14.01,2013-09-21 23:38:00,
2013-09-21 19:43:00,62.2,59.6,29.20,SSW,202,2.0,2.0,91,0.00,,,0.00,VWS V14.01,2013-09-21 23:43:00,
2013-09-21 19:48:00,62.2,59.6,29.20,SSW,202,2.5,2.5,91,0.00,,,0.00,VWS V14.01,2013-09-21 23:48:00,
2013-09-21 19:53:00,62.1,59.4,29.20,SW,225,2.0,2.0,91,0.00,,,0.00,VWS V14.01,2013-09-21 23:53:00,
2013-09-21 19:58:00,61.9,59.2,29.20,SSE,158,0.9,0.9,91,0.00,,,0.00,VWS V14.01,2013-09-21 23:58:00,
2013-09-21 20:03:00,61.9,59.2,29.20,WSW,248,1.1,1.1,91,0.00,,,0.00,VWS V14.01,2013-09-22 00:03:00,
2013-09-21 20:08:00,61.9,59.2,29.20,SSW,202,2.0,2.0,91,0.00,,,0.00,VWS V14.01,2013-09-22 00:08:00,
2013-09-21 20:13:00,61.9,59.2,29.20,South,180,1.3,1.3,91,0.00,,,0.00,VWS V14.01,2013-09-22 00:13:00,
2013-09-21 20:18:00,61.7,59.4,29.20,SW,225,0.0,0.0,92,0.00,,,0.00,VWS V14.01,2013-09-22 00:18:00,
2013-09-21 20:24:00,61.7,59.4,29.20,WSW,248,0.0,0.0,92,0.00,,,0.00,VWS V14.01,2013-09-22 00:24:00,
2013-09-21 20:29:00,61.7,59.4,29.20,SSW,202,0.0,0.0,92,0.00,,,0.00,VWS V14.01,2013-09-22 00:29:00,
2013-09-21 20:34:00,61.7,59.4,29.20,SSW,202,0.0,0.0,92,0.00,,,0.00,VWS V14.01,2013-09-22 00:34:00,
2013-09-21 20:39:00,61.5,59.2,29.17,WSW,248,0.0,0.0,92,0.00,,,0.00,VWS V14.01,2013-09-22 00:39:00,
2013-09-21 20:44:00,61.5,59.2,29.17,WSW,248,0.0,0.0,92,0.00,,,0.00,VWS V14.01,2013-09-22 00:44:00,
2013-09-21 20:49:00,61.5,59.5,29.17,WSW,248,0.0,0.0,93,0.00,,,0.00,VWS V14.01,2013-09-22 00:49:00,
2013-09-21 20:54:00,61.5,59.5,29.20,West,270,2.7,2.7,93,0.00,,,0.00,VWS V14.01,2013-09-22 00:54:00,
2013-09-21 20:59:00,61.3,59.3,29.20,West,270,2.9,2.9,93,0.00,,,0.00,VWS V14.01,2013-09-22 00:59:00,
2013-09-21 21:04:00,61.3,59.3,29.17,West,270,1.1,1.1,93,0.00,,,0.00,VWS V14.01,2013-09-22 01:04:00,
2013-09-21 21:09:00,61.3,59.0,29.17,WSW,248,0.0,0.0,92,0.00,,,0.00,VWS V14.01,2013-09-22 01:09:00,
2013-09-21 21:15:00,61.3,59.3,29.17,ESE,112,1.1,1.1,93,0.00,,,0.00,VWS V14.01,2013-09-22 01:15:00,
2013-09-21 21:20:00,61.3,59.3,29.20,ENE,68,0.0,0.0,93,0.00,,,0.00,VWS V14.01,2013-09-22 01:20:00,
2013-09-21 21:25:00,61.3,59.3,29.20,West,270,2.2,2.2,93,0.00,,,0.00,VWS V14.01,2013-09-22 01:25:00,
2013-09-21 21:30:00,61.3,59.3,29.20,SE,135,0.0,0.0,93,0.00,,,0.00,VWS V14.01,2013-09-22 01:30:00,
2013-09-21 21:35:00,61.2,59.1,29.20,SW,225,0.0,0.0,93,0.00,,,0.00,VWS V14.01,2013-09-22 01:35:00,
2013-09-21 21:40:00,61.2,59.1,29.20,SW,225,0.0,0.0,93,0.00,,,0.00,VWS V14.01,2013-09-22 01:40:00,
2013-09-21 21:45:00,61.2,59.1,29.20,West,270,0.0,0.0,93,0.00,,,0.00,VWS V14.01,2013-09-22 01:45:00,
2013-09-21 21:50:00,61.0,59.0,29.20,WNW,292,0.0,0.0,93,0.00,,,0.00,VWS V14.01,2013-09-22 01:50:00,
2013-09-21 21:55:00,61.0,59.0,29.20,WNW,292,2.0,2.0,93,0.00,,,0.00,VWS V14.01,2013-09-22 01:55:00,
2013-09-21 22:00:00,61.0,59.0,29.20,WNW,292,0.0,0.0,93,0.00,,,0.00,VWS V14.01,2013-09-22 02:00:00,
2013-09-21 22:05:00,61.0,59.0,29.20,WNW,292,0.0,0.0,93,0.00,,,0.00,VWS V14.01,2013-09-22 02:05:00,
2013-09-21 22:10:00,61.0,59.0,29.20,WNW,292,0.0,0.0,93,0.00,,,0.00,VWS V14.01,2013-09-22 02:10:00,
2013-09-21 22:15:00,61.0,59.0,29.20,WNW,292,0.0,0.0,93,0.00,,,0.00,VWS V14.01,2013-09-22 02:15:00,
2013-09-21 22:20:00,61.0,59.0,29.20,WNW,292,0.0,0.0,93,0.00,,,0.00,VWS V14.01,2013-09-22 02:20:00,
2013-09-21 22:25:00,61.0,59.0,29.20,WNW,292,0.0,0.0,93,0.00,,,0.00,VWS V14.01,2013-09-22 02:25:00,
2013-09-21 22:30:00,60.8,58.8,29.20,WNW,292,0.0,0.0,93,0.00,,,0.00,VWS V14.01,2013-09-22 02:30:00,
2013-09-21 22:35:00,60.8,58.8,29.20,WNW,292,0.0,0.0,93,0.00,,,0.00,VWS V14.01,2013-09-22 02:35:00,
2013-09-21 22:40:00,60.8,58.8,29.20,WNW,292,0.0,0.0,93,0.00,,,0.00,VWS V14.01,2013-09-22 02:40:00,
2013-09-21 22:46:00,60.8,58.8,29.20,WSW,248,0.9,0.9,93,0.00,,,0.00,VWS V14.01,2013-09-22 02:46:00,
2013-09-21 22:51:00,60.6,58.9,29.20,WNW,292,2.2,2.2,94,0.00,,,0.00,VWS V14.01,2013-09-22 02:51:00,
2013-09-21 22:56:00,60.8,58.8,29.20,WNW,292,0.0,0.0,93,0.00,,,0.00,VWS V14.01,2013-09-22 02:56:00,
2013-09-21 23:01:00,60.8,58.8,29.20,WNW,292,0.0,0.0,93,0.00,,,0.00,VWS V14.01,2013-09-22 03:01:00,
2013-09-21 23:06:00,60.8,59.1,29.23,WNW,292,0.0,0.0,94,0.00,,,0.00,VWS V14.01,2013-09-22 03:06:00,
2013-09-21 23:11:00,60.8,59.1,29.23,WNW,292,0.0,0.0,94,0.00,,,0.00,VWS V14.01,2013-09-22 03:11:00,
2013-09-21 23:16:00,60.8,59.1,29.23,WNW,292,0.0,0.0,94,0.00,,,0.00,VWS V14.01,2013-09-22 03:16:00,
2013-09-21 23:21:00,60.8,59.1,29.23,WNW,292,0.0,0.0,94,0.00,,,0.00,VWS V14.01,2013-09-22 03:21:00,
2013-09-21 23:26:00,60.8,59.1,29.23,SSW,202,1.3,1.3,94,0.00,,,0.00,VWS V14.01,2013-09-22 03:26:00,
2013-09-21 23:31:00,60.8,59.1,29.23,WSW,248,0.0,0.0,94,0.00,,,0.00,VWS V14.01,2013-09-22 03:31:00,
2013-09-21 23:36:00,61.0,59.2,29.23,West,270,0.0,0.0,94,0.00,,,0.00,VWS V14.01,2013-09-22 03:36:00,
2013-09-21 23:41:00,61.0,59.2,29.23,West,270,0.0,0.0,94,0.00,,,0.00,VWS V14.01,2013-09-22 03:41:00,
2013-09-21 23:47:00,61.0,59.2,29.23,West,270,0.0,0.0,94,0.00,,,0.00,VWS V14.01,2013-09-22 03:47:00,
2013-09-21 23:52:00,61.0,59.2,29.23,West,270,0.0,0.0,94,0.00,,,0.00,VWS V14.01,2013-09-22 03:52:00,
2013-09-21 23:57:00,61.0,59.2,29.23,West,270,0.0,0.0,94,0.00,,,0.00,VWS V14.01,2013-09-22 03:57:00,